sensor_id;sensor_type;location;lat;lon;timestamp;P1;durP1;ratioP1;P2;durP2;ratioP2
67869;SDS011;54673;52.262;6.830;2023-02-28T00:02:18;1.43;;;1.27;;
67869;SDS011;54673;52.262;6.830;2023-02-28T00:04:43;5.53;;;1.40;;
67869;SDS011;54673;52.262;6.830;2023-02-28T00:07:09;1.60;;;1.17;;
67869;SDS011;54673;52.262;6.830;2023-02-28T00:09:34;2.08;;;1.20;;
67869;SDS011;54673;52.262;6.830;2023-02-28T00:12:00;1.40;;;0.90;;
67869;SDS011;54673;52.262;6.830;2023-02-28T00:14:35;1.70;;;1.00;;
67869;SDS011;54673;52.262;6.830;2023-02-28T00:17:01;1.67;;;1.00;;
67869;SDS011;54673;52.262;6.830;2023-02-28T00:19:27;2.37;;;1.30;;
67869;SDS011;54673;52.262;6.830;2023-02-28T00:21:52;2.25;;;1.17;;
67869;SDS011;54673;52.262;6.830;2023-02-28T00:24:18;2.23;;;1.10;;
67869;SDS011;54673;52.262;6.830;2023-02-28T00:26:44;2.15;;;1.00;;
67869;SDS011;54673;52.262;6.830;2023-02-28T00:29:09;1.90;;;1.00;;
67869;SDS011;54673;52.262;6.830;2023-02-28T00:31:35;2.87;;;1.27;;
67869;SDS011;54673;52.262;6.830;2023-02-28T00:34:00;1.93;;;0.90;;
67869;SDS011;54673;52.262;6.830;2023-02-28T00:36:26;3.20;;;1.40;;
67869;SDS011;54673;52.262;6.830;2023-02-28T00:38:51;2.05;;;1.25;;
67869;SDS011;54673;52.262;6.830;2023-02-28T00:41:17;1.90;;;1.00;;
67869;SDS011;54673;52.262;6.830;2023-02-28T00:43:43;2.07;;;1.07;;
67869;SDS011;54673;52.262;6.830;2023-02-28T00:46:08;1.98;;;1.08;;
67869;SDS011;54673;52.262;6.830;2023-02-28T00:48:34;2.30;;;1.27;;
67869;SDS011;54673;52.262;6.830;2023-02-28T00:51:00;1.95;;;1.30;;
67869;SDS011;54673;52.262;6.830;2023-02-28T00:53:26;1.85;;;1.25;;
67869;SDS011;54673;52.262;6.830;2023-02-28T00:55:52;2.20;;;1.10;;
67869;SDS011;54673;52.262;6.830;2023-02-28T00:58:18;2.67;;;1.20;;
67869;SDS011;54673;52.262;6.830;2023-02-28T01:00:44;1.40;;;0.90;;
67869;SDS011;54673;52.262;6.830;2023-02-28T01:03:13;2.05;;;1.23;;
67869;SDS011;54673;52.262;6.830;2023-02-28T01:05:40;2.33;;;1.30;;
67869;SDS011;54673;52.262;6.830;2023-02-28T01:08:06;1.75;;;1.25;;
67869;SDS011;54673;52.262;6.830;2023-02-28T01:10:31;1.73;;;1.20;;
67869;SDS011;54673;52.262;6.830;2023-02-28T01:12:57;2.05;;;1.02;;
67869;SDS011;54673;52.262;6.830;2023-02-28T01:15:23;1.73;;;1.07;;
67869;SDS011;54673;52.262;6.830;2023-02-28T01:17:49;2.63;;;1.20;;
67869;SDS011;54673;52.262;6.830;2023-02-28T01:20:14;1.13;;;1.00;;
67869;SDS011;54673;52.262;6.830;2023-02-28T01:22:40;1.20;;;1.03;;
67869;SDS011;54673;52.262;6.830;2023-02-28T01:25:06;3.67;;;1.40;;
67869;SDS011;54673;52.262;6.830;2023-02-28T01:27:31;1.23;;;0.98;;
67869;SDS011;54673;52.262;6.830;2023-02-28T01:29:58;1.73;;;1.03;;
67869;SDS011;54673;52.262;6.830;2023-02-28T01:32:24;2.08;;;1.10;;
67869;SDS011;54673;52.262;6.830;2023-02-28T01:34:49;2.23;;;1.20;;
67869;SDS011;54673;52.262;6.830;2023-02-28T01:37:15;2.43;;;1.20;;
67869;SDS011;54673;52.262;6.830;2023-02-28T01:39:40;2.75;;;0.93;;
67869;SDS011;54673;52.262;6.830;2023-02-28T01:42:08;1.53;;;1.00;;
67869;SDS011;54673;52.262;6.830;2023-02-28T01:47:28;2.80;;;1.10;;
67869;SDS011;54673;52.262;6.830;2023-02-28T01:49:57;2.03;;;1.20;;
67869;SDS011;54673;52.262;6.830;2023-02-28T01:52:23;2.58;;;1.20;;
67869;SDS011;54673;52.262;6.830;2023-02-28T01:54:51;1.60;;;1.47;;
67869;SDS011;54673;52.262;6.830;2023-02-28T01:57:20;1.80;;;1.30;;
67869;SDS011;54673;52.262;6.830;2023-02-28T01:59:57;1.77;;;1.30;;
67869;SDS011;54673;52.262;6.830;2023-02-28T02:02:29;2.22;;;1.10;;
67869;SDS011;54673;52.262;6.830;2023-02-28T02:05:06;1.40;;;1.00;;
67869;SDS011;54673;52.262;6.830;2023-02-28T02:07:37;2.17;;;1.10;;
67869;SDS011;54673;52.262;6.830;2023-02-28T02:12:51;1.73;;;1.30;;
67869;SDS011;54673;52.262;6.830;2023-02-28T02:15:40;1.77;;;1.23;;
67869;SDS011;54673;52.262;6.830;2023-02-28T02:18:18;1.95;;;1.10;;
67869;SDS011;54673;52.262;6.830;2023-02-28T02:37:25;2.10;;;1.17;;
67869;SDS011;54673;52.262;6.830;2023-02-28T02:45:17;2.65;;;1.10;;
67869;SDS011;54673;52.262;6.830;2023-02-28T02:47:47;1.90;;;1.10;;
67869;SDS011;54673;52.262;6.830;2023-02-28T02:50:17;3.05;;;1.60;;
67869;SDS011;54673;52.262;6.830;2023-02-28T02:52:50;1.50;;;1.10;;
67869;SDS011;54673;52.262;6.830;2023-02-28T02:55:20;2.45;;;1.10;;
67869;SDS011;54673;52.262;6.830;2023-02-28T02:57:49;1.75;;;1.10;;
67869;SDS011;54673;52.262;6.830;2023-02-28T03:00:20;2.17;;;1.20;;
67869;SDS011;54673;52.262;6.830;2023-02-28T03:02:51;1.40;;;1.10;;
67869;SDS011;54673;52.262;6.830;2023-02-28T03:05:26;1.10;;;1.00;;
67869;SDS011;54673;52.262;6.830;2023-02-28T03:07:55;1.67;;;1.00;;
67869;SDS011;54673;52.262;6.830;2023-02-28T03:10:28;1.90;;;1.10;;
67869;SDS011;54673;52.262;6.830;2023-02-28T03:13:09;2.53;;;1.10;;
67869;SDS011;54673;52.262;6.830;2023-02-28T03:16:09;1.88;;;1.00;;
67869;SDS011;54673;52.262;6.830;2023-02-28T03:21:56;1.80;;;1.27;;
67869;SDS011;54673;52.262;6.830;2023-02-28T03:27:09;1.95;;;1.00;;
67869;SDS011;54673;52.262;6.830;2023-02-28T03:29:46;1.60;;;0.93;;
67869;SDS011;54673;52.262;6.830;2023-02-28T03:35:09;2.42;;;1.10;;
67869;SDS011;54673;52.262;6.830;2023-02-28T03:37:46;2.47;;;1.13;;
67869;SDS011;54673;52.262;6.830;2023-02-28T03:40:16;1.42;;;1.02;;
67869;SDS011;54673;52.262;6.830;2023-02-28T03:42:44;1.58;;;1.13;;
67869;SDS011;54673;52.262;6.830;2023-02-28T03:45:14;1.87;;;1.10;;
67869;SDS011;54673;52.262;6.830;2023-02-28T03:47:46;2.30;;;1.48;;
67869;SDS011;54673;52.262;6.830;2023-02-28T03:53:02;2.63;;;1.10;;
67869;SDS011;54673;52.262;6.830;2023-02-28T03:55:33;2.90;;;1.20;;
67869;SDS011;54673;52.262;6.830;2023-02-28T04:00:45;1.90;;;1.00;;
67869;SDS011;54673;52.262;6.830;2023-02-28T04:03:14;2.50;;;1.00;;
67869;SDS011;54673;52.262;6.830;2023-02-28T04:05:47;1.73;;;1.00;;
67869;SDS011;54673;52.262;6.830;2023-02-28T04:08:16;1.30;;;1.17;;
67869;SDS011;54673;52.262;6.830;2023-02-28T04:10:42;2.40;;;1.30;;
67869;SDS011;54673;52.262;6.830;2023-02-28T04:13:13;2.05;;;1.25;;
67869;SDS011;54673;52.262;6.830;2023-02-28T04:15:38;2.23;;;1.37;;
67869;SDS011;54673;52.262;6.830;2023-02-28T04:18:04;1.93;;;1.47;;
67869;SDS011;54673;52.262;6.830;2023-02-28T04:20:30;1.98;;;1.40;;
67869;SDS011;54673;52.262;6.830;2023-02-28T04:22:56;1.83;;;1.30;;
67869;SDS011;54673;52.262;6.830;2023-02-28T04:25:21;1.30;;;1.00;;
67869;SDS011;54673;52.262;6.830;2023-02-28T04:27:47;1.60;;;1.20;;
67869;SDS011;54673;52.262;6.830;2023-02-28T04:30:12;1.70;;;0.90;;
67869;SDS011;54673;52.262;6.830;2023-02-28T04:32:38;1.88;;;1.25;;
67869;SDS011;54673;52.262;6.830;2023-02-28T04:35:04;1.60;;;1.27;;
67869;SDS011;54673;52.262;6.830;2023-02-28T04:37:30;1.48;;;1.10;;
67869;SDS011;54673;52.262;6.830;2023-02-28T04:39:59;2.47;;;1.40;;
67869;SDS011;54673;52.262;6.830;2023-02-28T04:42:25;1.77;;;1.20;;
67869;SDS011;54673;52.262;6.830;2023-02-28T04:44:51;1.33;;;1.13;;
67869;SDS011;54673;52.262;6.830;2023-02-28T04:47:17;1.77;;;1.30;;
67869;SDS011;54673;52.262;6.830;2023-02-28T04:49:42;1.53;;;1.27;;
67869;SDS011;54673;52.262;6.830;2023-02-28T04:52:08;2.85;;;1.23;;
67869;SDS011;54673;52.262;6.830;2023-02-28T04:54:35;2.07;;;1.10;;
67869;SDS011;54673;52.262;6.830;2023-02-28T04:57:00;1.52;;;0.90;;
67869;SDS011;54673;52.262;6.830;2023-02-28T04:59:26;3.80;;;1.30;;
67869;SDS011;54673;52.262;6.830;2023-02-28T05:01:52;1.85;;;1.10;;
67869;SDS011;54673;52.262;6.830;2023-02-28T05:04:17;1.80;;;1.20;;
67869;SDS011;54673;52.262;6.830;2023-02-28T05:06:43;1.80;;;1.20;;
67869;SDS011;54673;52.262;6.830;2023-02-28T05:09:09;1.80;;;1.30;;
67869;SDS011;54673;52.262;6.830;2023-02-28T05:11:36;1.55;;;1.20;;
67869;SDS011;54673;52.262;6.830;2023-02-28T05:14:04;1.53;;;1.10;;
67869;SDS011;54673;52.262;6.830;2023-02-28T05:16:32;1.52;;;1.10;;
67869;SDS011;54673;52.262;6.830;2023-02-28T05:18:58;1.90;;;1.20;;
67869;SDS011;54673;52.262;6.830;2023-02-28T05:21:28;1.73;;;1.10;;
67869;SDS011;54673;52.262;6.830;2023-02-28T05:23:56;1.90;;;1.30;;
67869;SDS011;54673;52.262;6.830;2023-02-28T05:26:24;1.95;;;1.40;;
67869;SDS011;54673;52.262;6.830;2023-02-28T05:28:50;1.75;;;1.10;;
67869;SDS011;54673;52.262;6.830;2023-02-28T05:31:16;2.10;;;1.23;;
67869;SDS011;54673;52.262;6.830;2023-02-28T05:33:41;1.60;;;1.10;;
67869;SDS011;54673;52.262;6.830;2023-02-28T05:36:07;1.70;;;1.30;;
67869;SDS011;54673;52.262;6.830;2023-02-28T05:38:33;3.93;;;1.30;;
67869;SDS011;54673;52.262;6.830;2023-02-28T05:40:59;2.28;;;1.30;;
67869;SDS011;54673;52.262;6.830;2023-02-28T05:43:24;1.50;;;1.10;;
67869;SDS011;54673;52.262;6.830;2023-02-28T05:45:50;1.48;;;1.00;;
67869;SDS011;54673;52.262;6.830;2023-02-28T05:48:16;1.30;;;1.20;;
67869;SDS011;54673;52.262;6.830;2023-02-28T05:50:43;2.03;;;1.23;;
67869;SDS011;54673;52.262;6.830;2023-02-28T05:53:11;1.77;;;1.30;;
67869;SDS011;54673;52.262;6.830;2023-02-28T05:55:36;1.80;;;1.17;;
67869;SDS011;54673;52.262;6.830;2023-02-28T05:58:02;2.17;;;1.30;;
67869;SDS011;54673;52.262;6.830;2023-02-28T06:00:28;1.87;;;1.23;;
67869;SDS011;54673;52.262;6.830;2023-02-28T06:02:54;1.70;;;1.23;;
67869;SDS011;54673;52.262;6.830;2023-02-28T06:05:22;1.37;;;1.10;;
67869;SDS011;54673;52.262;6.830;2023-02-28T06:07:48;1.83;;;1.42;;
67869;SDS011;54673;52.262;6.830;2023-02-28T06:10:14;2.80;;;1.30;;
67869;SDS011;54673;52.262;6.830;2023-02-28T06:12:40;1.80;;;1.33;;
67869;SDS011;54673;52.262;6.830;2023-02-28T06:15:07;1.83;;;1.23;;
67869;SDS011;54673;52.262;6.830;2023-02-28T06:17:36;1.42;;;1.17;;
67869;SDS011;54673;52.262;6.830;2023-02-28T06:20:02;2.00;;;1.20;;
67869;SDS011;54673;52.262;6.830;2023-02-28T06:22:29;1.85;;;1.10;;
67869;SDS011;54673;52.262;6.830;2023-02-28T06:24:54;3.17;;;1.20;;
67869;SDS011;54673;52.262;6.830;2023-02-28T06:27:21;1.60;;;1.25;;
67869;SDS011;54673;52.262;6.830;2023-02-28T06:29:47;2.13;;;1.30;;
67869;SDS011;54673;52.262;6.830;2023-02-28T06:32:12;1.60;;;1.10;;
67869;SDS011;54673;52.262;6.830;2023-02-28T06:34:38;1.57;;;1.10;;
67869;SDS011;54673;52.262;6.830;2023-02-28T06:37:03;1.40;;;1.20;;
67869;SDS011;54673;52.262;6.830;2023-02-28T06:39:29;1.40;;;1.30;;
67869;SDS011;54673;52.262;6.830;2023-02-28T06:41:55;1.47;;;1.10;;
67869;SDS011;54673;52.262;6.830;2023-02-28T06:44:21;2.53;;;1.60;;
67869;SDS011;54673;52.262;6.830;2023-02-28T06:46:48;2.37;;;1.10;;
67869;SDS011;54673;52.262;6.830;2023-02-28T06:49:13;2.08;;;1.13;;
67869;SDS011;54673;52.262;6.830;2023-02-28T06:51:40;1.95;;;1.30;;
67869;SDS011;54673;52.262;6.830;2023-02-28T06:54:07;1.93;;;1.20;;
67869;SDS011;54673;52.262;6.830;2023-02-28T06:56:35;1.88;;;1.40;;
67869;SDS011;54673;52.262;6.830;2023-02-28T06:59:01;2.40;;;1.30;;
67869;SDS011;54673;52.262;6.830;2023-02-28T07:01:27;1.80;;;1.38;;
67869;SDS011;54673;52.262;6.830;2023-02-28T07:03:53;1.63;;;1.30;;
67869;SDS011;54673;52.262;6.830;2023-02-28T07:06:19;2.25;;;1.10;;
67869;SDS011;54673;52.262;6.830;2023-02-28T07:08:47;2.45;;;1.30;;
67869;SDS011;54673;52.262;6.830;2023-02-28T07:11:15;1.83;;;1.13;;
67869;SDS011;54673;52.262;6.830;2023-02-28T07:13:40;1.60;;;1.17;;
67869;SDS011;54673;52.262;6.830;2023-02-28T07:16:07;2.20;;;1.23;;
67869;SDS011;54673;52.262;6.830;2023-02-28T07:18:35;1.25;;;1.10;;
67869;SDS011;54673;52.262;6.830;2023-02-28T07:21:02;2.00;;;1.30;;
67869;SDS011;54673;52.262;6.830;2023-02-28T07:23:28;1.55;;;1.30;;
67869;SDS011;54673;52.262;6.830;2023-02-28T07:25:54;2.13;;;1.10;;
67869;SDS011;54673;52.262;6.830;2023-02-28T07:28:20;2.08;;;1.30;;
67869;SDS011;54673;52.262;6.830;2023-02-28T07:30:45;1.50;;;1.10;;
67869;SDS011;54673;52.262;6.830;2023-02-28T07:33:11;1.17;;;1.00;;
67869;SDS011;54673;52.262;6.830;2023-02-28T07:35:36;1.40;;;1.02;;
67869;SDS011;54673;52.262;6.830;2023-02-28T07:38:02;1.50;;;1.20;;
67869;SDS011;54673;52.262;6.830;2023-02-28T07:40:28;2.33;;;1.05;;
67869;SDS011;54673;52.262;6.830;2023-02-28T07:42:54;1.60;;;0.90;;
67869;SDS011;54673;52.262;6.830;2023-02-28T07:45:19;2.17;;;1.13;;
67869;SDS011;54673;52.262;6.830;2023-02-28T07:47:45;2.55;;;1.10;;
67869;SDS011;54673;52.262;6.830;2023-02-28T07:50:11;2.07;;;1.30;;
67869;SDS011;54673;52.262;6.830;2023-02-28T07:52:40;1.83;;;1.10;;
67869;SDS011;54673;52.262;6.830;2023-02-28T07:55:07;1.77;;;1.23;;
67869;SDS011;54673;52.262;6.830;2023-02-28T07:57:34;1.77;;;1.08;;
67869;SDS011;54673;52.262;6.830;2023-02-28T07:59:59;2.05;;;1.25;;
67869;SDS011;54673;52.262;6.830;2023-02-28T08:02:25;1.53;;;1.23;;
67869;SDS011;54673;52.262;6.830;2023-02-28T08:04:51;1.50;;;1.07;;
67869;SDS011;54673;52.262;6.830;2023-02-28T08:07:17;1.70;;;1.05;;
67869;SDS011;54673;52.262;6.830;2023-02-28T08:09:43;2.70;;;1.20;;
67869;SDS011;54673;52.262;6.830;2023-02-28T08:12:09;2.20;;;1.20;;
67869;SDS011;54673;52.262;6.830;2023-02-28T08:14:35;2.33;;;0.90;;
67869;SDS011;54673;52.262;6.830;2023-02-28T08:17:02;1.83;;;1.20;;
67869;SDS011;54673;52.262;6.830;2023-02-28T08:19:27;0.95;;;0.82;;
67869;SDS011;54673;52.262;6.830;2023-02-28T08:21:53;2.40;;;1.30;;
67869;SDS011;54673;52.262;6.830;2023-02-28T08:24:19;1.50;;;1.10;;
67869;SDS011;54673;52.262;6.830;2023-02-28T08:26:45;1.57;;;1.20;;
67869;SDS011;54673;52.262;6.830;2023-02-28T08:29:10;1.70;;;1.25;;
67869;SDS011;54673;52.262;6.830;2023-02-28T08:31:36;1.40;;;1.13;;
67869;SDS011;54673;52.262;6.830;2023-02-28T08:34:06;1.90;;;1.20;;
67869;SDS011;54673;52.262;6.830;2023-02-28T08:36:32;1.30;;;0.98;;
67869;SDS011;54673;52.262;6.830;2023-02-28T08:38:57;1.17;;;0.90;;
67869;SDS011;54673;52.262;6.830;2023-02-28T08:41:24;1.45;;;0.98;;
67869;SDS011;54673;52.262;6.830;2023-02-28T08:43:50;1.67;;;0.90;;
67869;SDS011;54673;52.262;6.830;2023-02-28T08:46:16;2.22;;;0.80;;
67869;SDS011;54673;52.262;6.830;2023-02-28T08:48:42;1.43;;;1.00;;
67869;SDS011;54673;52.262;6.830;2023-02-28T08:51:10;0.85;;;0.80;;
67869;SDS011;54673;52.262;6.830;2023-02-28T08:53:38;2.03;;;1.10;;
67869;SDS011;54673;52.262;6.830;2023-02-28T08:56:09;1.55;;;1.13;;
67869;SDS011;54673;52.262;6.830;2023-02-28T08:58:36;1.55;;;1.10;;
67869;SDS011;54673;52.262;6.830;2023-02-28T09:01:35;1.00;;;0.80;;
67869;SDS011;54673;52.262;6.830;2023-02-28T09:03:54;1.20;;;0.95;;
67869;SDS011;54673;52.262;6.830;2023-02-28T09:06:22;1.23;;;0.90;;
67869;SDS011;54673;52.262;6.830;2023-02-28T09:08:49;1.00;;;0.90;;
67869;SDS011;54673;52.262;6.830;2023-02-28T09:11:15;1.50;;;0.90;;
67869;SDS011;54673;52.262;6.830;2023-02-28T09:13:41;1.10;;;1.00;;
67869;SDS011;54673;52.262;6.830;2023-02-28T09:16:08;1.10;;;0.80;;
67869;SDS011;54673;52.262;6.830;2023-02-28T09:18:36;1.47;;;0.90;;
67869;SDS011;54673;52.262;6.830;2023-02-28T09:21:06;0.95;;;0.80;;
67869;SDS011;54673;52.262;6.830;2023-02-28T09:23:33;1.10;;;0.83;;
67869;SDS011;54673;52.262;6.830;2023-02-28T09:25:59;1.52;;;0.98;;
67869;SDS011;54673;52.262;6.830;2023-02-28T09:28:25;1.20;;;1.00;;
67869;SDS011;54673;52.262;6.830;2023-02-28T09:30:51;0.90;;;0.70;;
67869;SDS011;54673;52.262;6.830;2023-02-28T09:33:19;1.20;;;1.10;;
67869;SDS011;54673;52.262;6.830;2023-02-28T09:35:46;1.33;;;0.83;;
67869;SDS011;54673;52.262;6.830;2023-02-28T09:38:12;1.10;;;0.93;;
67869;SDS011;54673;52.262;6.830;2023-02-28T09:40:39;1.17;;;0.90;;
67869;SDS011;54673;52.262;6.830;2023-02-28T09:43:11;1.67;;;1.10;;
67869;SDS011;54673;52.262;6.830;2023-02-28T09:45:39;1.70;;;0.90;;
67869;SDS011;54673;52.262;6.830;2023-02-28T09:48:11;1.57;;;0.80;;
67869;SDS011;54673;52.262;6.830;2023-02-28T09:50:48;1.00;;;0.90;;
67869;SDS011;54673;52.262;6.830;2023-02-28T09:53:34;1.03;;;0.80;;
67869;SDS011;54673;52.262;6.830;2023-02-28T09:56:11;2.00;;;1.02;;
67869;SDS011;54673;52.262;6.830;2023-02-28T09:58:58;1.23;;;0.70;;
67869;SDS011;54673;52.262;6.830;2023-02-28T10:04:03;1.97;;;1.00;;
67869;SDS011;54673;52.262;6.830;2023-02-28T10:06:50;1.90;;;0.80;;
67869;SDS011;54673;52.262;6.830;2023-02-28T10:09:22;0.98;;;0.70;;
67869;SDS011;54673;52.262;6.830;2023-02-28T10:11:50;2.77;;;0.90;;
67869;SDS011;54673;52.262;6.830;2023-02-28T10:14:19;2.60;;;0.70;;
67869;SDS011;54673;52.262;6.830;2023-02-28T10:16:48;4.67;;;1.20;;
67869;SDS011;54673;52.262;6.830;2023-02-28T10:19:38;1.30;;;0.82;;
67869;SDS011;54673;52.262;6.830;2023-02-28T10:22:19;2.55;;;1.00;;
67869;SDS011;54673;52.262;6.830;2023-02-28T10:24:51;5.73;;;1.10;;
67869;SDS011;54673;52.262;6.830;2023-02-28T10:27:25;7.53;;;1.20;;
67869;SDS011;54673;52.262;6.830;2023-02-28T10:29:54;2.90;;;1.20;;
67869;SDS011;54673;52.262;6.830;2023-02-28T10:32:31;5.15;;;0.98;;
67869;SDS011;54673;52.262;6.830;2023-02-28T10:35:00;12.40;;;1.02;;
67869;SDS011;54673;52.262;6.830;2023-02-28T10:37:38;12.70;;;1.00;;
67869;SDS011;54673;52.262;6.830;2023-02-28T10:40:06;3.63;;;0.77;;
67869;SDS011;54673;52.262;6.830;2023-02-28T10:45:21;4.60;;;1.00;;
67869;SDS011;54673;52.262;6.830;2023-02-28T10:48:00;20.23;;;1.00;;
67869;SDS011;54673;52.262;6.830;2023-02-28T10:56:02;10.30;;;0.80;;
67869;SDS011;54673;52.262;6.830;2023-02-28T11:01:13;4.53;;;0.90;;
67869;SDS011;54673;52.262;6.830;2023-02-28T11:03:41;1.65;;;0.60;;
67869;SDS011;54673;52.262;6.830;2023-02-28T11:06:08;4.47;;;0.50;;
67869;SDS011;54673;52.262;6.830;2023-02-28T11:08:55;3.85;;;0.75;;
67869;SDS011;54673;52.262;6.830;2023-02-28T11:11:23;4.85;;;0.65;;
67869;SDS011;54673;52.262;6.830;2023-02-28T11:13:57;4.27;;;0.70;;
67869;SDS011;54673;52.262;6.830;2023-02-28T11:16:41;3.85;;;0.80;;
67869;SDS011;54673;52.262;6.830;2023-02-28T11:19:06;2.23;;;0.60;;
67869;SDS011;54673;52.262;6.830;2023-02-28T11:22:00;3.17;;;0.50;;
67869;SDS011;54673;52.262;6.830;2023-02-28T11:24:28;2.63;;;0.83;;
67869;SDS011;54673;52.262;6.830;2023-02-28T11:26:56;1.65;;;0.50;;
67869;SDS011;54673;52.262;6.830;2023-02-28T11:29:26;2.88;;;0.68;;
67869;SDS011;54673;52.262;6.830;2023-02-28T11:37:36;1.10;;;0.70;;
67869;SDS011;54673;52.262;6.830;2023-02-28T11:40:13;0.93;;;0.50;;
67869;SDS011;54673;52.262;6.830;2023-02-28T11:48:30;6.40;;;0.70;;
67869;SDS011;54673;52.262;6.830;2023-02-28T11:56:36;3.25;;;0.70;;
67869;SDS011;54673;52.262;6.830;2023-02-28T11:59:59;6.03;;;0.83;;
67869;SDS011;54673;52.262;6.830;2023-02-28T12:02:35;5.57;;;0.82;;
67869;SDS011;54673;52.262;6.830;2023-02-28T12:05:42;4.17;;;0.83;;
67869;SDS011;54673;52.262;6.830;2023-02-28T12:11:11;4.70;;;0.80;;
67869;SDS011;54673;52.262;6.830;2023-02-28T12:16:43;2.17;;;0.77;;
67869;SDS011;54673;52.262;6.830;2023-02-28T12:19:25;4.10;;;0.70;;
67869;SDS011;54673;52.262;6.830;2023-02-28T12:27:39;8.03;;;0.87;;
67869;SDS011;54673;52.262;6.830;2023-02-28T12:30:19;8.07;;;0.60;;
67869;SDS011;54673;52.262;6.830;2023-02-28T12:32:51;7.10;;;0.80;;
67869;SDS011;54673;52.262;6.830;2023-02-28T12:35:37;3.72;;;0.68;;
67869;SDS011;54673;52.262;6.830;2023-02-28T12:38:17;3.10;;;0.98;;
67869;SDS011;54673;52.262;6.830;2023-02-28T12:40:49;6.50;;;1.17;;
67869;SDS011;54673;52.262;6.830;2023-02-28T12:43:28;10.52;;;0.80;;
67869;SDS011;54673;52.262;6.830;2023-02-28T12:46:21;1.17;;;0.83;;
67869;SDS011;54673;52.262;6.830;2023-02-28T12:48:53;8.23;;;0.80;;
67869;SDS011;54673;52.262;6.830;2023-02-28T12:51:22;7.47;;;0.70;;
67869;SDS011;54673;52.262;6.830;2023-02-28T12:53:56;7.07;;;0.70;;
67869;SDS011;54673;52.262;6.830;2023-02-28T12:56:33;7.50;;;0.95;;
67869;SDS011;54673;52.262;6.830;2023-02-28T12:59:14;7.80;;;0.77;;
67869;SDS011;54673;52.262;6.830;2023-02-28T13:05:00;12.68;;;1.27;;
67869;SDS011;54673;52.262;6.830;2023-02-28T13:07:51;5.80;;;0.80;;
67869;SDS011;54673;52.262;6.830;2023-02-28T13:10:39;14.25;;;0.98;;
67869;SDS011;54673;52.262;6.830;2023-02-28T13:13:17;15.40;;;1.23;;
67869;SDS011;54673;52.262;6.830;2023-02-28T13:16:04;9.53;;;1.00;;
67869;SDS011;54673;52.262;6.830;2023-02-28T13:21:26;5.77;;;1.00;;
67869;SDS011;54673;52.262;6.830;2023-02-28T13:29:02;6.57;;;0.90;;
67869;SDS011;54673;52.262;6.830;2023-02-28T13:34:31;8.65;;;0.80;;
67869;SDS011;54673;52.262;6.830;2023-02-28T13:37:30;3.33;;;0.70;;
67869;SDS011;54673;52.262;6.830;2023-02-28T13:42:52;1.77;;;0.67;;
67869;SDS011;54673;52.262;6.830;2023-02-28T13:45:27;5.82;;;1.60;;
67869;SDS011;54673;52.262;6.830;2023-02-28T13:48:02;6.90;;;1.00;;
67869;SDS011;54673;52.262;6.830;2023-02-28T13:50:30;2.85;;;0.73;;
67869;SDS011;54673;52.262;6.830;2023-02-28T13:58:41;7.38;;;0.90;;
67869;SDS011;54673;52.262;6.830;2023-02-28T14:01:31;3.63;;;0.98;;
67869;SDS011;54673;52.262;6.830;2023-02-28T14:06:51;4.80;;;1.00;;
67869;SDS011;54673;52.262;6.830;2023-02-28T14:09:29;5.67;;;1.07;;
67869;SDS011;54673;52.262;6.830;2023-02-28T14:17:58;8.67;;;1.10;;
67869;SDS011;54673;52.262;6.830;2023-02-28T14:20:26;12.35;;;1.00;;
67869;SDS011;54673;52.262;6.830;2023-02-28T14:23:04;5.32;;;1.10;;
67869;SDS011;54673;52.262;6.830;2023-02-28T14:28:19;9.18;;;0.70;;
67869;SDS011;54673;52.262;6.830;2023-02-28T14:31:01;5.70;;;1.00;;
67869;SDS011;54673;52.262;6.830;2023-02-28T14:36:46;7.00;;;1.00;;
67869;SDS011;54673;52.262;6.830;2023-02-28T14:39:14;3.77;;;1.30;;
67869;SDS011;54673;52.262;6.830;2023-02-28T14:41:44;3.55;;;0.70;;
67869;SDS011;54673;52.262;6.830;2023-02-28T14:44:24;4.27;;;1.03;;
67869;SDS011;54673;52.262;6.830;2023-02-28T14:47:01;2.33;;;1.10;;
67869;SDS011;54673;52.262;6.830;2023-02-28T14:52:01;3.37;;;0.73;;
67869;SDS011;54673;52.262;6.830;2023-02-28T14:54:39;3.83;;;1.10;;
67869;SDS011;54673;52.262;6.830;2023-02-28T14:57:05;6.60;;;1.10;;
67869;SDS011;54673;52.262;6.830;2023-02-28T14:59:32;3.47;;;0.80;;
67869;SDS011;54673;52.262;6.830;2023-02-28T15:02:16;6.50;;;0.98;;
67869;SDS011;54673;52.262;6.830;2023-02-28T15:04:57;3.67;;;1.23;;
67869;SDS011;54673;52.262;6.830;2023-02-28T15:07:25;2.13;;;1.00;;
67869;SDS011;54673;52.262;6.830;2023-02-28T15:10:15;1.95;;;0.80;;
67869;SDS011;54673;52.262;6.830;2023-02-28T15:12:54;4.03;;;1.00;;
67869;SDS011;54673;52.262;6.830;2023-02-28T15:15:26;5.22;;;0.98;;
67869;SDS011;54673;52.262;6.830;2023-02-28T15:18:19;4.47;;;0.83;;
67869;SDS011;54673;52.262;6.830;2023-02-28T15:20:57;1.50;;;0.88;;
67869;SDS011;54673;52.262;6.830;2023-02-28T15:23:27;1.42;;;0.70;;
67869;SDS011;54673;52.262;6.830;2023-02-28T15:25:53;1.07;;;0.70;;
67869;SDS011;54673;52.262;6.830;2023-02-28T15:28:20;2.08;;;0.95;;
67869;SDS011;54673;52.262;6.830;2023-02-28T15:30:56;5.03;;;0.90;;
67869;SDS011;54673;52.262;6.830;2023-02-28T15:33:30;2.45;;;0.88;;
67869;SDS011;54673;52.262;6.830;2023-02-28T15:36:11;5.68;;;0.88;;
67869;SDS011;54673;52.262;6.830;2023-02-28T15:38:39;1.60;;;0.60;;
67869;SDS011;54673;52.262;6.830;2023-02-28T15:41:04;1.92;;;0.73;;
67869;SDS011;54673;52.262;6.830;2023-02-28T15:43:37;1.37;;;0.67;;
67869;SDS011;54673;52.262;6.830;2023-02-28T15:46:08;3.45;;;0.68;;
67869;SDS011;54673;52.262;6.830;2023-02-28T15:48:38;1.27;;;0.50;;
67869;SDS011;54673;52.262;6.830;2023-02-28T15:53:58;1.20;;;0.70;;
67869;SDS011;54673;52.262;6.830;2023-02-28T15:56:33;2.67;;;0.77;;
67869;SDS011;54673;52.262;6.830;2023-02-28T15:59:07;3.90;;;0.77;;
67869;SDS011;54673;52.262;6.830;2023-02-28T16:01:41;4.22;;;0.90;;
67869;SDS011;54673;52.262;6.830;2023-02-28T16:04:12;1.97;;;0.77;;
67869;SDS011;54673;52.262;6.830;2023-02-28T16:06:41;3.72;;;0.70;;
67869;SDS011;54673;52.262;6.830;2023-02-28T16:09:12;1.77;;;0.90;;
67869;SDS011;54673;52.262;6.830;2023-02-28T16:11:40;1.42;;;0.63;;
67869;SDS011;54673;52.262;6.830;2023-02-28T16:14:17;1.43;;;0.60;;
67869;SDS011;54673;52.262;6.830;2023-02-28T16:16:46;4.88;;;0.70;;
67869;SDS011;54673;52.262;6.830;2023-02-28T16:19:13;5.32;;;0.80;;
67869;SDS011;54673;52.262;6.830;2023-02-28T16:21:39;1.83;;;0.80;;
67869;SDS011;54673;52.262;6.830;2023-02-28T16:24:05;1.08;;;0.70;;
67869;SDS011;54673;52.262;6.830;2023-02-28T16:26:32;2.80;;;0.70;;
67869;SDS011;54673;52.262;6.830;2023-02-28T16:28:59;1.10;;;0.60;;
67869;SDS011;54673;52.262;6.830;2023-02-28T16:31:27;3.70;;;1.02;;
67869;SDS011;54673;52.262;6.830;2023-02-28T16:33:53;2.10;;;0.80;;
67869;SDS011;54673;52.262;6.830;2023-02-28T16:36:20;2.92;;;0.93;;
67869;SDS011;54673;52.262;6.830;2023-02-28T16:38:49;4.03;;;0.75;;
67869;SDS011;54673;52.262;6.830;2023-02-28T16:41:19;1.80;;;0.93;;
67869;SDS011;54673;52.262;6.830;2023-02-28T16:43:47;4.40;;;0.90;;
67869;SDS011;54673;52.262;6.830;2023-02-28T16:46:15;1.30;;;0.80;;
67869;SDS011;54673;52.262;6.830;2023-02-28T16:48:41;1.40;;;0.88;;
67869;SDS011;54673;52.262;6.830;2023-02-28T16:51:11;2.30;;;0.90;;
67869;SDS011;54673;52.262;6.830;2023-02-28T16:53:37;1.40;;;0.70;;
67869;SDS011;54673;52.262;6.830;2023-02-28T16:56:02;2.55;;;0.80;;
67869;SDS011;54673;52.262;6.830;2023-02-28T16:58:29;6.83;;;1.00;;
67869;SDS011;54673;52.262;6.830;2023-02-28T17:00:55;1.77;;;0.88;;
67869;SDS011;54673;52.262;6.830;2023-02-28T17:03:22;1.10;;;0.70;;
67869;SDS011;54673;52.262;6.830;2023-02-28T17:05:49;5.07;;;0.65;;
67869;SDS011;54673;52.262;6.830;2023-02-28T17:08:15;2.00;;;0.70;;
67869;SDS011;54673;52.262;6.830;2023-02-28T17:10:41;4.00;;;0.80;;
67869;SDS011;54673;52.262;6.830;2023-02-28T17:13:06;1.90;;;0.70;;